Time;durP1;ratioP1;P1;durP2;ratioP2;P2;SDS_P1;SDS_P2;PMS_P1;PMS_P2;Temp;Humidity;BMP_temperature;BMP_pressure;BME280_temperature;BME280_humidity;BME280_pressure;Samples;Min_cycle;Max_cycle;Signal;HPM_P1;HPM_P2
2022/04/14 00:00:19;;;;;;;15.97;10.93;;;;;;;15.82;100.00;99131.28;4952756;28;20291;-81
2022/04/14 00:02:48;;;;;;;12.37;9.63;;;;;;;15.77;100.00;99139.72;4970193;28;20228;-81
2022/04/14 00:05:16;;;;;;;14.57;9.73;;;;;;;15.76;100.00;99146.03;4967175;28;20251;-81
2022/04/14 00:07:55;;;;;;;18.53;10.40;;;;;;;15.73;100.00;99152.50;4972923;28;20211;-81
2022/04/14 00:10:26;;;;;;;19.83;10.33;;;;;;;15.62;100.00;99149.88;4975304;28;20206;-81
2022/04/14 00:12:54;;;;;;;15.10;11.13;;;;;;;15.63;100.00;99148.03;4958284;28;20210;-81
2022/04/14 00:15:25;;;;;;;15.30;11.17;;;;;;;15.58;100.00;99156.41;4985428;28;20264;-81
2022/04/14 00:17:55;;;;;;;15.83;10.73;;;;;;;15.59;100.00;99154.59;5047192;28;20203;-81
2022/04/14 00:20:25;;;;;;;13.97;10.73;;;;;;;15.60;100.00;99158.97;5043629;28;20216;-81
2022/04/14 00:22:55;;;;;;;14.90;11.23;;;;;;;15.40;100.00;99156.16;5053819;28;20193;-81
2022/04/14 00:25:27;;;;;;;16.10;12.40;;;;;;;15.41;100.00;99165.00;4990009;28;20242;-82
2022/04/14 00:27:57;;;;;;;16.73;12.10;;;;;;;15.39;100.00;99164.28;4987545;28;20774;-82
2022/04/14 00:30:35;;;;;;;17.87;13.37;;;;;;;15.34;100.00;99161.97;4957342;28;20195;-82
2022/04/14 00:33:07;;;;;;;20.67;13.70;;;;;;;15.33;100.00;99164.78;4986207;28;20210;-81
2022/04/14 00:35:36;;;;;;;20.73;14.00;;;;;;;15.38;100.00;99165.25;4951232;29;20224;-82
2022/04/14 00:38:06;;;;;;;18.63;13.90;;;;;;;15.38;100.00;99167.94;4953037;29;20260;-82
2022/04/14 00:40:34;;;;;;;17.53;13.47;;;;;;;15.37;100.00;99160.91;4912508;29;20202;-82
2022/04/14 00:43:03;;;;;;;20.40;14.63;;;;;;;15.23;100.00;99172.72;4922951;28;20215;-81
2022/04/14 00:45:33;;;;;;;17.17;13.73;;;;;;;15.33;100.00;99167.47;4966161;28;20246;-82
2022/04/14 00:48:03;;;;;;;19.13;14.07;;;;;;;15.36;100.00;99173.41;4962074;28;20199;-81
2022/04/14 00:50:34;;;;;;;18.97;13.83;;;;;;;15.25;100.00;99173.44;4964327;28;20195;-82
2022/04/14 00:53:06;;;;;;;23.30;14.80;;;;;;;15.28;100.00;99175.00;4944500;28;20202;-82
2022/04/14 00:55:36;;;;;;;21.33;15.07;;;;;;;15.20;100.00;99186.31;5004682;28;20229;-81
2022/04/14 00:58:06;;;;;;;21.50;15.13;;;;;;;15.27;100.00;99184.00;5011073;28;20221;-82
2022/04/14 01:00:36;;;;;;;20.70;14.97;;;;;;;15.10;100.00;99194.22;5048895;28;20284;-82
2022/04/14 01:03:06;;;;;;;20.10;14.37;;;;;;;15.23;100.00;99190.53;4951133;28;20201;-81
2022/04/14 01:05:38;;;;;;;21.13;14.27;;;;;;;15.08;100.00;99190.84;5049136;28;20193;-82
2022/04/14 01:08:11;;;;;;;20.37;15.03;;;;;;;14.99;100.00;99196.94;5042951;28;20252;-82
2022/04/14 01:10:40;;;;;;;18.40;15.30;;;;;;;15.05;100.00;99199.09;4986004;28;20234;-82
2022/04/14 01:13:11;;;;;;;21.80;15.57;;;;;;;15.01;100.00;99202.97;4986745;28;20274;-82
2022/04/14 01:15:43;;;;;;;21.10;16.33;;;;;;;15.07;100.00;99206.97;4991419;28;20219;-82
2022/04/14 01:18:15;;;;;;;20.00;15.40;;;;;;;15.15;100.00;99210.72;4989141;28;20226;-82
2022/04/14 01:20:45;;;;;;;21.53;15.87;;;;;;;15.09;100.00;99205.03;4929065;29;20359;-81
2022/04/14 01:23:19;;;;;;;19.90;15.53;;;;;;;15.03;100.00;99210.84;4927564;29;20217;-83
2022/04/14 01:25:52;;;;;;;26.50;15.93;;;;;;;14.99;100.00;99215.59;4927385;29;20244;-81
2022/04/14 01:28:21;;;;;;;20.87;16.10;;;;;;;15.04;100.00;99208.06;4946325;28;20322;-82
2022/04/14 01:30:56;;;;;;;23.23;16.30;;;;;;;14.92;100.00;99209.06;4985391;28;20205;-81
2022/04/14 01:33:25;;;;;;;23.47;16.23;;;;;;;15.00;100.00;99216.44;4980259;28;20646;-81
2022/04/14 01:35:54;;;;;;;25.90;16.93;;;;;;;14.94;100.00;99217.78;4994100;28;20226;-82
2022/04/14 01:38:23;;;;;;;26.40;18.17;;;;;;;14.93;100.00;99215.25;4989653;28;20195;-81
2022/04/14 01:40:59;;;;;;;21.07;16.13;;;;;;;15.03;100.00;99211.69;4949288;29;20212;-82
2022/04/14 01:43:27;;;;;;;24.47;16.73;;;;;;;14.91;100.00;99218.03;4944998;29;20220;-82
2022/04/14 01:46:00;;;;;;;22.83;17.13;;;;;;;14.89;100.00;99217.31;4974109;28;20203;-81
2022/04/14 01:48:30;;;;;;;23.43;18.17;;;;;;;14.87;100.00;99222.78;4933859;29;20207;-81
2022/04/14 01:51:02;;;;;;;23.50;16.50;;;;;;;14.83;100.00;99215.13;4931441;29;20212;-82
2022/04/14 01:53:31;;;;;;;27.50;18.33;;;;;;;14.80;100.00;99223.41;4932142;29;20665;-82
2022/04/14 01:56:01;;;;;;;26.60;17.57;;;;;;;14.76;100.00;99219.25;4932143;29;20714;-81
2022/04/14 01:58:30;;;;;;;28.90;18.27;;;;;;;14.74;100.00;99214.06;4953884;28;20282;-81
2022/04/14 02:00:59;;;;;;;23.93;18.03;;;;;;;14.64;100.00;99225.59;5007834;28;20688;-82
2022/04/14 02:03:27;;;;;;;24.73;18.13;;;;;;;14.75;100.00;99229.09;5004858;28;20206;-81
2022/04/14 02:05:56;;;;;;;23.90;18.80;;;;;;;14.69;100.00;99228.75;5014013;28;20197;-82
2022/04/14 02:08:26;;;;;;;23.73;19.10;;;;;;;14.68;100.00;99227.06;5051447;28;20204;-82
2022/04/14 02:10:56;;;;;;;27.93;18.00;;;;;;;14.73;100.00;99225.69;5050568;28;20238;-82
2022/04/14 02:13:29;;;;;;;21.27;17.40;;;;;;;14.65;100.00;99221.94;5047120;28;20237;-82
2022/04/14 02:16:00;;;;;;;24.30;18.97;;;;;;;14.58;100.00;99218.94;4955567;29;20220;-82
2022/04/14 02:18:30;;;;;;;22.90;18.07;;;;;;;14.63;100.00;99214.06;4953790;29;20697;-82
2022/04/14 02:20:59;;;;;;;26.77;19.00;;;;;;;14.60;100.00;99214.31;4950569;29;20208;-82
2022/04/14 02:23:28;;;;;;;27.30;19.03;;;;;;;14.60;100.00;99217.84;4955212;29;20197;-81
2022/04/14 02:25:57;;;;;;;22.87;18.87;;;;;;;14.68;100.00;99222.56;4950213;29;20207;-82
2022/04/14 02:28:42;;;;;;;25.27;19.33;;;;;;;14.63;100.00;99231.88;4942861;29;20203;-82
2022/04/14 02:31:10;;;;;;;28.03;19.40;;;;;;;14.58;100.00;99222.44;4950798;29;20208;-82
2022/04/14 02:33:40;;;;;;;25.20;18.13;;;;;;;14.50;100.00;99230.22;4967422;28;20195;-82
2022/04/14 02:36:09;;;;;;;23.27;19.13;;;;;;;14.47;100.00;99232.25;5004215;28;20218;-82
2022/04/14 02:38:38;;;;;;;25.20;20.00;;;;;;;14.37;100.00;99237.41;4988549;28;20242;-81
2022/04/14 02:41:07;;;;;;;24.47;19.53;;;;;;;14.28;100.00;99239.00;4977919;28;20286;-82
2022/04/14 02:43:45;;;;;;;23.87;18.80;;;;;;;14.42;100.00;99239.75;4988239;28;20239;-82
2022/04/14 02:46:16;;;;;;;23.97;21.00;;;;;;;14.26;100.00;99246.25;4933486;29;20197;-81
2022/04/14 02:48:49;;;;;;;28.70;21.43;;;;;;;14.38;100.00;99247.13;4934494;29;20241;-82
2022/04/14 02:51:18;;;;;;;29.20;20.27;;;;;;;14.23;100.00;99249.16;4930541;29;20216;-81
2022/04/14 02:53:49;;;;;;;25.77;20.63;;;;;;;14.14;100.00;99254.34;4933895;29;20193;-82
2022/04/14 02:56:18;;;;;;;25.97;20.83;;;;;;;14.23;100.00;99249.16;4922443;29;20227;-81
2022/04/14 02:58:49;;;;;;;29.87;21.13;;;;;;;14.12;100.00;99253.63;4951684;28;20582;-81
2022/04/14 03:01:21;;;;;;;28.27;20.37;;;;;;;14.17;100.00;99246.13;4972812;28;20207;-82
2022/04/14 03:03:51;;;;;;;29.87;20.43;;;;;;;14.13;100.00;99253.50;4987609;28;20707;-82
2022/04/14 03:06:19;;;;;;;24.53;20.23;;;;;;;14.12;100.00;99245.63;4986762;28;20195;-82
2022/04/14 03:08:48;;;;;;;28.00;19.53;;;;;;;14.11;100.00;99265.25;4992204;28;20229;-82
2022/04/14 03:11:19;;;;;;;23.63;19.57;;;;;;;14.15;100.00;99256.91;5026890;28;20205;-81
2022/04/14 03:13:49;;;;;;;26.63;19.80;;;;;;;14.07;100.00;99258.44;5047661;28;20209;-81
2022/04/14 03:16:19;;;;;;;27.53;19.80;;;;;;;14.08;100.00;99260.16;5013447;28;20227;-81
2022/04/14 03:18:48;;;;;;;27.63;19.03;;;;;;;14.13;100.00;99258.84;5047096;28;20190;-81
2022/04/14 03:21:18;;;;;;;23.70;18.80;;;;;;;14.02;100.00;99256.16;4969691;28;20670;-82
2022/04/14 03:23:47;;;;;;;26.23;20.13;;;;;;;14.10;100.00;99259.09;4964990;28;20199;-82
2022/04/14 03:26:16;;;;;;;23.83;19.30;;;;;;;14.06;100.00;99262.09;4929175;29;20212;-82
2022/04/14 03:28:44;;;;;;;26.40;19.63;;;;;;;14.04;100.00;99260.38;4931247;29;20229;-82
2022/04/14 03:31:15;;;;;;;25.77;19.73;;;;;;;14.02;100.00;99262.31;4932245;29;20220;-82
2022/04/14 03:33:46;;;;;;;27.60;20.23;;;;;;;14.12;100.00;99262.47;4929526;29;20229;-82
2022/04/14 03:36:14;;;;;;;26.40;19.27;;;;;;;14.11;100.00;99265.25;4927708;29;20220;-81
2022/04/14 03:38:47;;;;;;;24.50;18.93;;;;;;;14.01;100.00;99265.13;4943835;28;20191;-81
2022/04/14 03:41:17;;;;;;;28.83;19.67;;;;;;;13.97;100.00;99274.28;4969130;28;20204;-83
2022/04/14 03:43:46;;;;;;;24.37;18.93;;;;;;;14.06;100.00;99273.59;4971440;28;20283;-82
2022/04/14 03:46:21;;;;;;;25.77;19.23;;;;;;;13.97;100.00;99283.13;4985733;28;20413;-81
2022/04/14 03:48:52;;;;;;;28.03;18.10;;;;;;;13.91;100.00;99283.59;4935769;29;20204;-82
2022/04/14 03:51:22;;;;;;;23.53;18.20;;;;;;;13.87;100.00;99283.94;4947880;29;20374;-81
2022/04/14 03:53:52;;;;;;;23.53;17.30;;;;;;;13.83;100.00;99283.31;4948805;29;20212;-81
2022/04/14 03:56:21;;;;;;;24.73;18.27;;;;;;;13.70;100.00;99286.06;4948867;29;20228;-81
2022/04/14 03:58:52;;;;;;;24.93;17.50;;;;;;;13.73;100.00;99285.00;4929238;28;20279;-82
2022/04/14 04:01:22;;;;;;;23.43;17.77;;;;;;;13.68;100.00;99287.13;4971180;28;20208;-82
2022/04/14 04:03:52;;;;;;;24.57;17.17;;;;;;;13.72;100.00;99277.97;4964707;28;20242;-81
2022/04/14 04:06:21;;;;;;;23.60;17.33;;;;;;;13.72;100.00;99292.13;4966115;28;20278;-82
2022/04/14 04:08:49;;;;;;;23.70;16.97;;;;;;;13.83;100.00;99280.66;4969056;28;20192;-82
2022/04/14 04:11:18;;;;;;;23.47;16.53;;;;;;;13.78;100.00;99285.47;4966541;28;20203;-82
2022/04/14 04:13:47;;;;;;;23.00;17.27;;;;;;;13.65;100.00;99287.38;4962358;28;20204;-82
2022/04/14 04:16:16;;;;;;;22.97;16.80;;;;;;;13.75;100.00;99291.03;4969285;28;20245;-81
2022/04/14 04:18:45;;;;;;;22.10;15.50;;;;;;;13.69;100.00;99294.16;5008132;28;20253;-81
2022/04/14 04:21:16;;;;;;;20.27;16.17;;;;;;;13.71;100.00;99286.91;5045518;28;20205;-81
2022/04/14 04:23:46;;;;;;;23.97;16.83;;;;;;;13.65;100.00;99279.38;5050072;28;20189;-82
2022/04/14 04:26:16;;;;;;;22.13;16.70;;;;;;;13.73;100.00;99285.84;5013911;28;20201;-81
2022/04/14 04:28:44;;;;;;;20.20;15.93;;;;;;;13.60;100.00;99302.81;5046264;28;20220;-82
2022/04/14 04:31:13;;;;;;;24.67;16.57;;;;;;;13.61;100.00;99294.75;5050501;28;20204;-82
2022/04/14 04:33:42;;;;;;;20.57;15.37;;;;;;;13.80;100.00;99298.66;5043147;28;20189;-82
2022/04/14 04:36:12;;;;;;;21.67;15.47;;;;;;;13.83;100.00;99301.97;5012448;28;20231;-82
2022/04/14 04:38:48;;;;;;;19.47;15.07;;;;;;;13.88;100.00;99306.94;5045195;28;20197;-82
2022/04/14 04:41:16;;;;;;;20.93;15.07;;;;;;;13.74;100.00;99306.16;5040816;28;20246;-82
2022/04/14 04:43:45;;;;;;;22.10;16.07;;;;;;;13.74;100.00;99313.31;5039265;28;20281;-81
2022/04/14 04:46:15;;;;;;;21.67;15.23;;;;;;;13.61;100.00;99317.84;5026546;28;20200;-81
2022/04/14 04:48:45;;;;;;;21.70;15.57;;;;;;;13.76;100.00;99322.03;5028167;28;20190;-82
2022/04/14 04:51:17;;;;;;;24.87;15.87;;;;;;;13.83;100.00;99315.28;4991405;28;20278;-82
2022/04/14 04:53:47;;;;;;;20.17;15.30;;;;;;;13.92;100.00;99319.91;5023859;28;20197;-81
2022/04/14 04:56:16;;;;;;;22.83;16.33;;;;;;;13.61;100.00;99321.34;5026027;28;20213;-82
2022/04/14 04:58:48;;;;;;;21.17;15.27;;;;;;;13.55;100.00;99328.94;5033303;28;20201;-81
2022/04/14 05:01:16;;;;;;;18.87;15.40;;;;;;;13.48;100.00;99331.19;4956532;28;20203;-81
2022/04/14 05:03:47;;;;;;;21.23;15.13;;;;;;;13.56;100.00;99330.63;4891728;29;20199;-82
2022/04/14 05:06:18;;;;;;;20.93;15.80;;;;;;;13.66;100.00;99335.16;4890627;29;20212;-81
2022/04/14 05:08:48;;;;;;;21.13;14.47;;;;;;;13.69;100.00;99329.59;4894374;29;20257;-81
2022/04/14 05:11:17;;;;;;;19.90;13.90;;;;;;;13.80;100.00;99333.28;4890618;29;20278;-82
2022/04/14 05:13:46;;;;;;;18.23;14.40;;;;;;;13.95;100.00;99330.31;4889935;29;20202;-82
2022/04/14 05:16:16;;;;;;;19.73;13.67;;;;;;;14.08;100.00;99327.56;4892193;29;20210;-81
2022/04/14 05:18:45;;;;;;;20.03;13.83;;;;;;;14.03;100.00;99321.78;4894984;29;20215;-81
2022/04/14 05:21:14;;;;;;;18.20;13.60;;;;;;;13.85;100.00;99318.66;4957080;28;20197;-82
2022/04/14 05:23:43;;;;;;;18.47;13.53;;;;;;;13.81;100.00;99317.22;4984409;28;20202;-81
2022/04/14 05:26:16;;;;;;;18.30;13.80;;;;;;;13.92;100.00;99317.25;4985386;28;20203;-83
2022/04/14 05:28:45;;;;;;;21.33;14.03;;;;;;;14.09;100.00;99318.66;4980337;28;20203;-82
2022/04/14 05:31:14;;;;;;;18.50;13.40;;;;;;;14.23;100.00;99317.59;4979959;28;20203;-82
2022/04/14 05:33:42;;;;;;;18.67;13.53;;;;;;;14.31;100.00;99317.84;4986541;28;20191;-82
2022/04/14 05:36:11;;;;;;;18.40;12.37;;;;;;;14.48;100.00;99314.78;4981306;28;20203;-82
2022/04/14 05:38:42;;;;;;;17.17;13.23;;;;;;;14.59;100.00;99312.13;4988394;28;20286;-82
2022/04/14 05:41:10;;;;;;;17.93;13.50;;;;;;;14.71;100.00;99320.13;4985542;28;20209;-82
2022/04/14 05:43:42;;;;;;;19.33;12.33;;;;;;;14.77;100.00;99320.50;4994353;28;20237;-82
2022/04/14 05:46:10;;;;;;;14.77;12.80;;;;;;;14.74;100.00;99315.38;5005888;28;20206;-82
2022/04/14 05:48:44;;;;;;;18.43;12.73;;;;;;;14.63;100.00;99319.88;5019778;28;20190;-82
2022/04/14 05:51:13;;;;;;;17.13;12.80;;;;;;;14.60;100.00;99321.81;5026973;28;20288;-82
2022/04/14 05:53:42;;;;;;;18.33;13.90;;;;;;;14.33;100.00;99326.56;5027227;28;20221;-82
2022/04/14 05:56:10;;;;;;;17.90;13.30;;;;;;;14.49;100.00;99318.28;5029307;28;20255;-82
2022/04/14 05:58:39;;;;;;;17.83;13.37;;;;;;;14.45;100.00;99328.31;5028667;28;20225;-82
2022/04/14 06:01:10;;;;;;;17.20;13.37;;;;;;;14.34;100.00;99336.25;5021484;28;20198;-81
2022/04/14 06:03:40;;;;;;;19.27;13.63;;;;;;;14.45;100.00;99327.47;5027295;28;20202;-82
2022/04/14 06:06:11;;;;;;;19.50;13.93;;;;;;;14.59;100.00;99324.59;5026523;28;20205;-82
2022/04/14 06:08:41;;;;;;;18.37;14.23;;;;;;;14.43;100.00;99327.56;5025021;28;20201;-82
2022/04/14 06:11:10;;;;;;;19.33;13.77;;;;;;;14.68;100.00;99334.53;5029489;28;20209;-82
2022/04/14 06:13:41;;;;;;;19.30;14.03;;;;;;;14.46;100.00;99339.81;5026813;28;20212;-82
2022/04/14 06:16:11;;;;;;;17.73;13.13;;;;;;;14.44;100.00;99328.41;4966546;28;20243;-82
2022/04/14 06:18:45;;;;;;;19.27;14.10;;;;;;;14.37;100.00;99335.16;4968152;28;20219;-82
2022/04/14 06:21:14;;;;;;;20.90;14.97;;;;;;;14.45;100.00;99344.31;4967182;28;20221;-82
2022/04/14 06:23:45;;;;;;;20.67;14.83;;;;;;;14.61;100.00;99338.66;4898544;29;20210;-81
2022/04/14 06:26:14;;;;;;;17.97;13.40;;;;;;;14.73;100.00;99348.34;4916102;29;20208;-81
2022/04/14 06:28:46;;;;;;;17.67;12.10;;;;;;;14.63;100.00;99344.72;4912840;29;20230;-82
2022/04/14 06:31:17;;;;;;;16.73;12.20;;;;;;;14.69;100.00;99346.06;4895761;29;20271;-82
2022/04/14 06:33:48;;;;;;;14.93;11.20;;;;;;;14.77;100.00;99346.31;4905075;29;20200;-82
2022/04/14 06:36:16;;;;;;;12.50;10.97;;;;;;;14.64;100.00;99351.72;4929974;29;20196;-82
2022/04/14 06:38:45;;;;;;;15.43;10.70;;;;;;;14.70;100.00;99347.75;4928828;29;20692;-83
2022/04/14 06:41:14;;;;;;;13.07;10.57;;;;;;;14.63;100.00;99355.38;4937280;29;20660;-82
2022/04/14 06:43:42;;;;;;;15.63;11.10;;;;;;;14.72;100.00;99349.31;4959955;28;20238;-81
2022/04/14 06:46:10;;;;;;;13.30;10.57;;;;;;;14.65;100.00;99345.44;4974805;28;20196;-82
2022/04/14 06:48:42;;;;;;;15.87;10.77;;;;;;;14.52;100.00;99353.53;4995002;28;20204;-82
2022/04/14 06:51:10;;;;;;;12.50;9.90;;;;;;;14.42;100.00;99359.66;5049134;28;20209;-83
2022/04/14 06:53:39;;;;;;;17.93;10.40;;;;;;;14.18;100.00;99352.56;5045807;28;20205;-82
2022/04/14 06:56:07;;;;;;;13.97;10.23;;;;;;;14.17;100.00;99363.34;5046422;28;20201;-82
2022/04/14 06:58:40;;;;;;;14.93;9.70;;;;;;;14.29;100.00;99365.09;5046053;28;20213;-82
2022/04/14 07:01:10;;;;;;;14.33;9.60;;;;;;;14.44;100.00;99368.38;5047593;28;20200;-82
2022/04/14 07:03:44;;;;;;;14.83;9.53;;;;;;;14.45;100.00;99372.78;5046494;28;20216;-82
2022/04/14 07:06:12;;;;;;;14.13;9.70;;;;;;;14.43;100.00;99377.34;5044605;28;20201;-82
2022/04/14 07:08:41;;;;;;;14.50;8.30;;;;;;;14.34;100.00;99381.56;5045624;28;20196;-82
2022/04/14 07:11:11;;;;;;;12.87;9.13;;;;;;;14.27;100.00;99380.31;5046276;28;20189;-82
2022/04/14 07:13:40;;;;;;;10.20;8.10;;;;;;;14.54;100.00;99391.59;5048381;28;20204;-82
2022/04/14 07:16:09;;;;;;;14.40;8.23;;;;;;;14.48;100.00;99386.75;5045464;28;20189;-82
2022/04/14 07:18:40;;;;;;;11.63;8.33;;;;;;;14.46;100.00;99385.13;4913704;29;20227;-82
2022/04/14 07:21:13;;;;;;;11.10;7.73;;;;;;;14.41;100.00;99388.13;4911266;29;20224;-82
2022/04/14 07:23:44;;;;;;;11.57;7.90;;;;;;;14.44;100.00;99387.03;4912049;29;20206;-82
2022/04/14 07:26:13;;;;;;;10.43;7.43;;;;;;;14.48;100.00;99393.88;4914374;29;20202;-82
2022/04/14 07:28:43;;;;;;;11.80;7.80;;;;;;;14.58;100.00;99398.41;4913002;29;20198;-83
2022/04/14 07:31:13;;;;;;;9.13;7.40;;;;;;;14.60;100.00;99395.59;4912745;29;20221;-83
2022/04/14 07:33:44;;;;;;;10.20;7.40;;;;;;;14.57;100.00;99403.81;4910574;29;20210;-82
2022/04/14 07:36:19;;;;;;;11.27;6.60;;;;;;;14.52;100.00;99390.84;4945994;28;20195;-82
2022/04/14 07:39:03;;;;;;;10.13;6.27;;;;;;;14.33;100.00;99399.38;5050055;28;20217;-82
2022/04/14 07:41:32;;;;;;;12.90;6.50;;;;;;;14.46;100.00;99403.78;5013550;28;20200;-82
2022/04/14 07:44:00;;;;;;;10.23;6.50;;;;;;;14.48;100.00;99401.88;5046315;28;20290;-83
2022/04/14 07:46:29;;;;;;;11.87;6.90;;;;;;;14.35;100.00;99414.38;5050065;28;20289;-82
2022/04/14 07:48:59;;;;;;;8.97;6.17;;;;;;;14.39;100.00;99427.38;5044682;28;20628;-82
2022/04/14 07:51:34;;;;;;;10.87;7.03;;;;;;;14.20;100.00;99425.25;5047611;28;20200;-82
2022/04/14 07:54:03;;;;;;;8.37;6.17;;;;;;;14.23;100.00;99432.16;5046208;28;20196;-81
2022/04/14 07:56:31;;;;;;;10.03;7.17;;;;;;;14.10;100.00;99429.56;5051562;28;20232;-81
2022/04/14 07:59:00;;;;;;;9.80;5.87;;;;;;;14.14;100.00;99435.50;5051281;28;20307;-81
2022/04/14 08:01:29;;;;;;;8.27;5.90;;;;;;;14.06;100.00;99443.19;4981551;28;20251;-81
2022/04/14 08:03:58;;;;;;;8.67;5.40;;;;;;;14.00;100.00;99448.03;4931694;29;20209;-81
2022/04/14 08:06:29;;;;;;;7.40;5.23;;;;;;;14.20;100.00;99454.56;4936691;29;20261;-80
2022/04/14 08:08:58;;;;;;;9.00;5.10;;;;;;;14.11;100.00;99459.72;4933428;29;20215;-80
2022/04/14 08:11:29;;;;;;;8.83;5.20;;;;;;;14.16;100.00;99454.88;4912246;29;20205;-79
2022/04/14 08:13:57;;;;;;;8.70;5.60;;;;;;;14.10;100.00;99466.00;4915906;29;20194;-79
2022/04/14 08:16:28;;;;;;;7.47;5.67;;;;;;;14.15;100.00;99467.34;4909754;29;20209;-79
2022/04/14 08:18:59;;;;;;;8.83;6.37;;;;;;;14.33;100.00;99465.13;4941686;28;20381;-79
2022/04/14 08:21:30;;;;;;;13.07;7.00;;;;;;;14.17;100.00;99478.72;4989460;28;20210;-78
2022/04/14 08:24:03;;;;;;;10.40;6.70;;;;;;;14.28;100.00;99486.81;4987365;28;20286;-80
2022/04/14 08:26:32;;;;;;;11.83;7.60;;;;;;;14.42;100.00;99484.94;4992457;28;20283;-81
2022/04/14 08:29:01;;;;;;;10.23;7.73;;;;;;;14.33;100.00;99483.78;5026408;28;20201;-81
2022/04/14 08:31:29;;;;;;;12.10;8.60;;;;;;;14.36;100.00;99488.88;4972125;28;20195;-80
2022/04/14 08:33:58;;;;;;;12.63;8.97;;;;;;;14.26;100.00;99486.06;4964824;28;20203;-81
2022/04/14 08:36:27;;;;;;;12.47;9.07;;;;;;;14.48;100.00;99481.84;4967046;28;20328;-81
2022/04/14 08:38:57;;;;;;;11.77;8.63;;;;;;;14.57;100.00;99484.66;4964811;28;20230;-81
2022/04/14 08:41:31;;;;;;;12.23;8.43;;;;;;;14.43;100.00;99475.97;4967026;28;20208;-80
2022/04/14 08:44:02;;;;;;;12.47;9.23;;;;;;;14.56;100.00;99490.09;4934345;28;20777;-81
2022/04/14 08:46:31;;;;;;;12.77;9.50;;;;;;;14.62;100.00;99486.97;4912521;29;20254;-81
2022/04/14 08:49:00;;;;;;;10.73;9.13;;;;;;;14.63;100.00;99491.34;4924405;28;20231;-81
2022/04/14 08:51:36;;;;;;;11.07;9.20;;;;;;;14.77;100.00;99493.84;4991879;28;20242;-81
2022/04/14 08:54:09;;;;;;;12.10;9.30;;;;;;;14.74;100.00;99496.72;4933884;29;20200;-82
2022/04/14 08:56:41;;;;;;;14.23;9.60;;;;;;;15.07;100.00;99487.13;4930261;29;20201;-82
2022/04/14 08:59:11;;;;;;;13.13;9.77;;;;;;;14.91;100.00;99482.09;4928211;29;20234;-82
2022/04/14 09:01:40;;;;;;;13.67;9.10;;;;;;;15.02;100.00;99479.44;4933964;29;20293;-82
2022/04/14 09:04:12;;;;;;;10.97;8.27;;;;;;;14.94;100.00;99483.66;4930322;29;20208;-82
2022/04/14 09:06:41;;;;;;;12.47;8.73;;;;;;;15.05;100.00;99473.88;4931339;29;20741;-82
2022/04/14 09:09:09;;;;;;;12.80;9.10;;;;;;;15.06;100.00;99475.59;4928719;29;20197;-82
2022/04/14 09:11:40;;;;;;;13.77;8.83;;;;;;;15.29;100.00;99479.13;4981743;28;20200;-82
2022/04/14 09:14:09;;;;;;;11.13;8.13;;;;;;;15.39;100.00;99484.59;5045344;28;20205;-81
2022/04/14 09:16:38;;;;;;;11.00;7.87;;;;;;;15.20;100.00;99476.31;5045213;28;20204;-81
2022/04/14 09:19:06;;;;;;;10.87;7.90;;;;;;;15.38;100.00;99478.41;5045484;28;20304;-81
2022/04/14 09:21:36;;;;;;;9.73;7.37;;;;;;;15.42;100.00;99473.66;5045921;28;20197;-81
2022/04/14 09:24:05;;;;;;;8.20;6.57;;;;;;;15.34;100.00;99482.28;5040116;28;20204;-81
2022/04/14 09:26:34;;;;;;;9.53;6.23;;;;;;;15.26;100.00;99478.53;5043799;28;20193;-82
2022/04/14 09:29:10;;;;;;;7.73;5.90;;;;;;;15.42;100.00;99479.00;5045480;28;20251;-81
2022/04/14 09:31:54;;;;;;;9.83;6.23;;;;;;;15.38;100.00;99472.22;5045370;28;20200;-81
2022/04/14 09:34:48;;;;;;;6.43;5.47;;;;;;;15.06;100.00;99474.75;5045130;28;20271;-82
2022/04/14 09:37:17;;;;;;;5.87;5.10;;;;;;;14.78;100.00;99478.69;5045144;28;20662;-81
2022/04/14 09:39:56;;;;;;;7.00;5.40;;;;;;;14.83;100.00;99477.34;4968251;28;20216;-82
2022/04/14 09:42:31;;;;;;;5.63;4.77;;;;;;;14.74;100.00;99472.72;4964966;28;20686;-82
2022/04/14 09:45:20;;;;;;;8.23;5.60;;;;;;;15.03;100.00;99473.13;4945959;29;20224;-82
2022/04/14 09:48:10;;;;;;;6.97;4.90;;;;;;;15.26;100.00;99483.88;4932829;29;20197;-81
2022/04/14 09:50:40;;;;;;;6.23;4.90;;;;;;;15.30;100.00;99486.16;4927887;29;20197;-82
2022/04/14 09:53:10;;;;;;;6.00;4.70;;;;;;;15.56;100.00;99483.28;4930081;29;20268;-82
2022/04/14 09:55:43;;;;;;;8.30;4.77;;;;;;;15.23;100.00;99490.28;4876110;29;20233;-82
2022/04/14 09:58:14;;;;;;;5.40;4.30;;;;;;;15.37;100.00;99499.88;4900287;29;20202;-83
2022/04/14 10:00:50;;;;;;;6.13;4.43;;;;;;;15.57;100.00;99492.97;4914008;29;20232;-82
2022/04/14 10:03:20;;;;;;;5.90;4.00;;;;;;;15.32;100.00;99486.88;4914446;29;20213;-81
2022/04/14 10:05:52;;;;;;;7.47;4.27;;;;;;;15.30;100.00;99487.97;4914802;29;20261;-81
2022/04/14 10:08:22;;;;;;;5.90;4.33;;;;;;;15.48;100.00;99472.34;4911841;29;20578;-82
2022/04/14 10:11:04;;;;;;;6.70;4.23;;;;;;;15.43;100.00;99470.88;4913914;29;20198;-81
2022/04/14 10:13:35;;;;;;;6.20;3.60;;;;;;;15.53;100.00;99473.66;4989062;28;20194;-82
2022/04/14 10:16:07;;;;;;;4.97;4.30;;;;;;;15.74;100.00;99463.16;4990843;28;20198;-81
2022/04/14 10:18:36;;;;;;;5.20;3.80;;;;;;;15.87;100.00;99461.16;4992746;28;20187;-81
2022/04/14 10:21:07;;;;;;;5.63;3.97;;;;;;;15.95;100.00;99465.91;5031978;28;20217;-82
2022/04/14 10:23:36;;;;;;;7.77;4.67;;;;;;;16.09;100.00;99464.75;5055988;28;20189;-82
2022/04/14 10:26:04;;;;;;;7.83;4.70;;;;;;;16.48;100.00;99461.47;5046252;28;20258;-81
2022/04/14 10:28:35;;;;;;;4.97;4.10;;;;;;;16.63;100.00;99463.84;4988520;28;20203;-81
2022/04/14 10:31:06;;;;;;;6.47;4.07;;;;;;;16.78;100.00;99466.09;4972716;28;20230;-82
2022/04/14 10:33:39;;;;;;;4.70;4.17;;;;;;;16.76;100.00;99465.38;4988652;28;20187;-82
2022/04/14 10:36:08;;;;;;;5.33;4.27;;;;;;;16.93;100.00;99457.75;4988264;28;20315;-82
2022/04/14 10:38:40;;;;;;;7.10;4.03;;;;;;;16.53;100.00;99458.41;4986674;28;20199;-82
2022/04/14 10:41:15;;;;;;;4.70;3.93;;;;;;;16.85;100.00;99461.91;4987751;28;20309;-81
2022/04/14 10:43:47;;;;;;;9.23;3.93;;;;;;;16.77;100.00;99461.72;4982308;28;20233;-81
2022/04/14 10:46:40;;;;;;;7.37;4.10;;;;;;;17.00;100.00;99454.41;4991807;28;20204;-82
2022/04/14 10:49:13;;;;;;;9.07;4.70;;;;;;;16.78;100.00;99450.03;4953844;29;20679;-82
2022/04/14 10:51:43;;;;;;;7.07;4.50;;;;;;;17.17;100.00;99458.28;4955363;29;20201;-81
2022/04/14 10:54:15;;;;;;;5.03;4.37;;;;;;;17.34;100.00;99448.81;4952874;29;20196;-81
2022/04/14 10:56:49;;;;;;;12.53;4.53;;;;;;;17.30;100.00;99450.06;4951700;29;20211;-81
2022/04/14 10:59:23;;;;;;;5.20;4.00;;;;;;;17.17;100.00;99469.84;4953408;29;20330;-81
2022/04/14 11:02:04;;;;;;;5.70;4.27;;;;;;;17.13;100.00;99459.56;4952061;29;20778;-81
2022/04/14 11:04:38;;;;;;;5.63;3.93;;;;;;;17.26;100.00;99464.69;4947707;28;20204;-81
2022/04/14 11:07:12;;;;;;;5.57;4.40;;;;;;;17.19;100.00;99463.53;4984427;28;20201;-82
2022/04/14 11:09:53;;;;;;;5.53;4.00;;;;;;;17.27;100.00;99466.38;5032744;28;20204;-81
2022/04/14 11:12:23;;;;;;;4.87;3.90;;;;;;;17.20;100.00;99466.09;5023590;28;20209;-82
2022/04/14 11:14:57;;;;;;;5.37;4.07;;;;;;;17.51;100.00;99461.56;5029721;28;20186;-82
2022/04/14 11:18:07;;;;;;;6.07;4.20;;;;;;;17.20;100.00;99467.91;4990811;28;20195;-82
2022/04/14 11:21:06;;;;;;;5.80;3.90;;;;;;;17.39;100.00;99457.31;4988899;28;20215;-81
2022/04/14 11:23:38;;;;;;;5.87;4.07;;;;;;;17.52;100.00;99452.56;4986797;28;20199;-81
2022/04/14 11:26:14;;;;;;;5.97;3.93;;;;;;;17.30;100.00;99456.28;4989309;28;20226;-82
2022/04/14 11:28:46;;;;;;;8.80;4.63;;;;;;;17.42;100.00;99459.69;4984378;28;20282;-82
2022/04/14 11:31:26;;;;;;;4.53;3.93;;;;;;;17.34;100.00;99455.00;4949957;28;20233;-82